Adelaide, Australia

3:54 PM ACDT on March 29, 2017 (GMT +1030)
West Beach | | Change Station

Elev 26 ft 34.94 °S, 138.51 °E | Updated 23 minutes ago

Light Rain Showers
Light Showers Rain
62.8 °F
Feels Like 62.8 °F
N
7.0
Wind Variable Wind from ESE
Gusts 13.6 mph

Today
High -- | Low -- °F
--% Chance of Precip.
Yesterday
High -- | Low -- °F
Precip. -- in
Pressure 29.89 in
Visibility 3.1 miles
Clouds Mostly Cloudy 1200 ft
Mostly Cloudy 2500 ft
Dew Point 60 °F
Humidity 91%
Rainfall 0.00 in
Snow Depth Not available.
7:25 AM 7:14 PM
New Moon, 2% visible
SPECI YPAD 290500Z 21020KT 5000 -SHRA BKN012 BKN025 16/14 Q1012 FM0520 23020G30KT 9999 -SHRA SCT025 BKN040 INTER 0520/0600 5000 SHRA BKN012 INTER 0600/0800 5000 SHRA SCT015 BKN020
Pressure 29.89 in
Visibility 3.1 miles
Clouds Mostly Cloudy 1200 ft
Mostly Cloudy 2500 ft
Dew Point 60 °F
Humidity 91%
Rainfall 0.00 in
Snow Depth Not available.
7:25 AM 7:14 PM
New Moon, 2% visible
SPECI YPAD 290500Z 21020KT 5000 -SHRA BKN012 BKN025 16/14 Q1012 FM0520 23020G30KT 9999 -SHRA SCT025 BKN040 INTER 0520/0600 5000 SHRA BKN012 INTER 0600/0800 5000 SHRA SCT015 BKN020

Get Severe Weather Alerts

Thanks for signing up!

Be on the lookout for a verification email in your inbox.

You'll start receiving the daily forecast at 8 AM.

×

10-Day Weather Forecast

×

Almanac

Astronomy

Mar. 29, 2017 Rise Set
Actual Time
Civil Twilight
Nautical Twilight
Astronomical Twilight
Moon
Length of Visible Light
Length of Day
Tomorrow will be .
, % of the Moon is Illuminated

Today's Extremes

Country Highs Country Lows

Community

WunderPhotos

Upload Photos

1,962,540 photos uploaded!

WunderBlog® & News

Nearby

Air Quality

  Air Quality AQ Index Pollutant
Not available.

Snow Depth

Station Depth Elevation

Earthquake Activity

City Distance Mag. Time & Date
Minimum magnitude displayed is 2.5.

Earthquake Activity

City Distance Mag. Time & Date
Minimum magnitude displayed is 2.5.

Coastal Water Temperatures

Place Temperature

Stations

Nearby Weather Stations

Station Location Temp. Windchill Dew Point Humidity Wind Precip. Elev Updated Type